createdAt,value
2017-11-30T00:00:18.602Z,8.00
2017-11-30T00:01:18.617Z,4.00
2017-11-30T00:02:18.633Z,4.00
2017-11-30T00:03:18.647Z,8.00
2017-11-30T00:04:18.665Z,8.00
2017-11-30T00:05:18.679Z,4.00
2017-11-30T00:06:18.696Z,4.00
2017-11-30T00:07:18.713Z,4.00
2017-11-30T00:08:18.725Z,4.00
2017-11-30T00:09:18.742Z,8.00
2017-11-30T00:10:18.760Z,8.00
2017-11-30T00:11:18.772Z,8.00
2017-11-30T00:12:18.794Z,4.00
2017-11-30T00:13:18.802Z,4.00
2017-11-30T00:14:18.818Z,4.00
2017-11-30T00:15:18.833Z,8.00
2017-11-30T00:16:18.849Z,4.00
2017-11-30T00:17:18.863Z,4.00
2017-11-30T00:18:18.881Z,4.00
2017-11-30T00:19:18.896Z,8.00
2017-11-30T00:20:18.913Z,4.00
2017-11-30T00:21:18.927Z,4.00
2017-11-30T00:22:18.942Z,4.00
2017-11-30T00:23:18.958Z,4.00
2017-11-30T00:24:18.972Z,4.00
2017-11-30T00:25:18.988Z,4.00
2017-11-30T00:26:19.004Z,4.00
2017-11-30T00:27:19.018Z,4.00
2017-11-30T00:28:19.035Z,4.00
2017-11-30T00:29:19.050Z,8.00
2017-11-30T00:30:19.065Z,8.00
2017-11-30T00:31:19.081Z,4.00
2017-11-30T00:32:19.096Z,4.00
2017-11-30T00:33:19.110Z,4.00
2017-11-30T00:34:19.127Z,4.00
2017-11-30T00:35:19.143Z,8.00
2017-11-30T00:36:19.158Z,4.00
2017-11-30T00:37:19.172Z,8.00
2017-11-30T00:38:19.188Z,4.00
2017-11-30T00:39:19.203Z,4.00
2017-11-30T00:40:19.220Z,4.00
2017-11-30T00:41:19.234Z,4.00
2017-11-30T00:42:19.250Z,4.00
2017-11-30T00:43:19.264Z,4.00
2017-11-30T00:44:19.281Z,8.00
2017-11-30T00:45:19.295Z,8.00
2017-11-30T00:46:19.314Z,8.00
2017-11-30T00:47:19.326Z,4.00
2017-11-30T00:48:19.343Z,8.00
2017-11-30T00:49:19.355Z,4.00
2017-11-30T00:50:19.390Z,8.00
2017-11-30T00:51:19.387Z,8.00
2017-11-30T00:52:19.404Z,4.00
2017-11-30T00:53:19.416Z,4.00
2017-11-30T00:54:19.433Z,8.00
2017-11-30T00:55:19.448Z,4.00
2017-11-30T00:56:19.472Z,4.00
2017-11-30T00:57:19.479Z,4.00
2017-11-30T00:58:19.494Z,4.00
2017-11-30T00:59:19.509Z,4.00
2017-11-30T01:00:19.625Z,4.00
2017-11-30T01:01:19.540Z,4.00
2017-11-30T01:02:19.556Z,4.00
2017-11-30T01:03:19.572Z,4.00
2017-11-30T01:04:19.585Z,4.00
2017-11-30T01:05:19.602Z,4.00
2017-11-30T01:06:19.616Z,4.00
2017-11-30T01:07:19.634Z,4.00
2017-11-30T01:08:19.647Z,4.00
2017-11-30T01:09:19.662Z,4.00
2017-11-30T01:10:19.677Z,4.00
2017-11-30T01:11:19.693Z,4.00
2017-11-30T01:12:19.708Z,4.00
2017-11-30T01:13:19.726Z,4.00
2017-11-30T01:14:19.739Z,4.00
2017-11-30T01:15:19.755Z,4.00
2017-11-30T01:16:19.772Z,4.00
2017-11-30T01:17:19.783Z,4.00
2017-11-30T01:18:19.800Z,4.00
2017-11-30T01:19:19.816Z,4.00
2017-11-30T01:20:19.831Z,4.00
2017-11-30T01:21:19.845Z,4.00
2017-11-30T01:22:19.862Z,4.00
2017-11-30T01:23:19.877Z,4.00
2017-11-30T01:24:19.893Z,4.00
2017-11-30T01:25:19.908Z,4.00
2017-11-30T01:26:19.925Z,4.00
2017-11-30T01:27:19.937Z,4.00
2017-11-30T01:28:19.953Z,4.00
2017-11-30T01:29:19.968Z,4.00
2017-11-30T01:30:19.985Z,4.00
2017-11-30T01:31:20.000Z,4.00
2017-11-30T01:32:20.018Z,4.00
2017-11-30T01:33:20.030Z,4.00
2017-11-30T01:34:20.046Z,4.00
2017-11-30T01:35:20.061Z,4.00
2017-11-30T01:36:20.076Z,4.00
2017-11-30T01:37:20.092Z,4.00
2017-11-30T01:38:20.109Z,4.00
2017-11-30T01:39:20.122Z,4.00
2017-11-30T01:40:20.139Z,4.00
2017-11-30T01:41:20.153Z,4.00
2017-11-30T01:42:20.168Z,4.00
2017-11-30T01:43:20.185Z,4.00
2017-11-30T01:44:20.200Z,4.00
2017-11-30T01:45:20.216Z,4.00
2017-11-30T01:46:20.232Z,4.00
2017-11-30T01:47:20.249Z,4.00
2017-11-30T01:48:20.265Z,4.00
2017-11-30T01:49:20.279Z,4.00
2017-11-30T01:50:20.293Z,4.00
2017-11-30T01:51:20.309Z,4.00
2017-11-30T01:52:20.323Z,4.00
2017-11-30T01:53:20.339Z,4.00
2017-11-30T01:54:20.355Z,4.00
2017-11-30T01:55:20.370Z,4.00
2017-11-30T01:56:20.385Z,4.00
2017-11-30T01:57:20.400Z,4.00
2017-11-30T01:58:20.423Z,4.00
2017-11-30T01:59:20.431Z,4.00
2017-11-30T02:00:20.448Z,4.00
2017-11-30T02:01:20.461Z,4.00
2017-11-30T02:02:20.479Z,4.00
2017-11-30T02:03:20.493Z,4.00
2017-11-30T02:04:20.509Z,4.00
2017-11-30T02:05:20.525Z,4.00
2017-11-30T02:06:20.542Z,4.00
2017-11-30T02:07:20.554Z,4.00
2017-11-30T02:08:20.570Z,4.00
2017-11-30T02:09:20.585Z,4.00
2017-11-30T02:10:20.601Z,4.00
2017-11-30T02:11:20.621Z,4.00
2017-11-30T02:12:20.641Z,4.00
2017-11-30T02:13:20.648Z,4.00
2017-11-30T02:14:20.664Z,4.00
2017-11-30T02:15:20.679Z,4.00
2017-11-30T02:16:20.694Z,4.00
2017-11-30T02:17:20.710Z,4.00
2017-11-30T02:18:20.726Z,4.00
2017-11-30T02:19:20.741Z,4.00
2017-11-30T02:20:20.756Z,4.00
2017-11-30T02:21:20.771Z,4.00
2017-11-30T02:22:20.787Z,4.00
2017-11-30T02:23:20.801Z,4.00
2017-11-30T02:24:20.819Z,4.00
2017-11-30T02:25:20.833Z,4.00
2017-11-30T02:26:20.848Z,4.00
2017-11-30T02:27:20.869Z,4.00
2017-11-30T02:28:20.879Z,4.00
2017-11-30T02:29:20.895Z,4.00
2017-11-30T02:30:20.910Z,4.00
2017-11-30T02:31:20.927Z,4.00
2017-11-30T02:32:20.941Z,4.00
2017-11-30T02:33:20.993Z,4.00
2017-11-30T02:34:20.972Z,4.00
2017-11-30T02:35:20.990Z,4.00
2017-11-30T02:36:21.010Z,4.00
2017-11-30T02:37:21.017Z,4.00
2017-11-30T02:38:21.034Z,4.00
2017-11-30T02:39:21.049Z,4.00
2017-11-30T02:40:21.065Z,4.00
2017-11-30T02:41:21.081Z,4.00
2017-11-30T02:42:21.098Z,4.00
2017-11-30T02:43:21.111Z,4.00
2017-11-30T02:44:21.127Z,4.00
2017-11-30T02:45:21.141Z,4.00
2017-11-30T02:46:21.157Z,4.00
2017-11-30T02:47:21.172Z,4.00
2017-11-30T02:48:21.187Z,4.00
2017-11-30T02:49:21.207Z,4.00
2017-11-30T02:50:21.217Z,4.00
2017-11-30T02:51:21.235Z,4.00
2017-11-30T02:52:21.249Z,4.00
2017-11-30T02:53:21.265Z,4.00
2017-11-30T02:54:21.279Z,4.00
2017-11-30T02:55:21.293Z,4.00
2017-11-30T02:56:21.313Z,4.00
2017-11-30T02:57:21.326Z,4.00
2017-11-30T02:58:21.348Z,4.00
2017-11-30T02:59:21.356Z,4.00
2017-11-30T03:00:21.374Z,4.00
2017-11-30T03:01:21.387Z,4.00
2017-11-30T03:02:21.403Z,4.00
2017-11-30T03:03:21.418Z,4.00
2017-11-30T03:04:21.463Z,4.00
2017-11-30T03:05:21.448Z,4.00
2017-11-30T03:06:21.463Z,4.00
2017-11-30T03:07:21.479Z,4.00
2017-11-30T03:08:21.495Z,4.00
2017-11-30T03:09:21.511Z,4.00
2017-11-30T03:10:21.525Z,4.00
2017-11-30T03:11:21.541Z,4.00
2017-11-30T03:12:21.557Z,4.00
2017-11-30T03:13:21.570Z,4.00
2017-11-30T03:14:21.587Z,4.00
2017-11-30T03:15:21.604Z,4.00
2017-11-30T03:16:21.617Z,4.00
2017-11-30T03:17:21.631Z,4.00
2017-11-30T03:18:21.653Z,4.00
2017-11-30T03:19:21.664Z,4.00
2017-11-30T03:20:21.679Z,4.00
2017-11-30T03:21:21.694Z,4.00
2017-11-30T03:22:21.711Z,4.00
2017-11-30T03:23:21.725Z,4.00
2017-11-30T03:24:21.740Z,4.00
2017-11-30T03:25:21.756Z,4.00
2017-11-30T03:26:21.771Z,4.00
2017-11-30T03:27:21.786Z,4.00
2017-11-30T03:28:21.801Z,4.00
2017-11-30T03:29:21.818Z,4.00
2017-11-30T03:30:21.839Z,4.00
2017-11-30T03:31:21.850Z,4.00
2017-11-30T03:32:21.862Z,4.00
2017-11-30T03:33:21.878Z,4.00
2017-11-30T03:34:21.892Z,4.00
2017-11-30T03:35:21.908Z,4.00
2017-11-30T03:36:21.924Z,4.00
2017-11-30T03:37:21.940Z,4.00
2017-11-30T03:38:21.955Z,4.00
2017-11-30T03:39:21.970Z,4.00
2017-11-30T03:40:21.985Z,4.00
2017-11-30T03:41:21.999Z,4.00
2017-11-30T03:42:22.016Z,4.00
2017-11-30T03:43:22.032Z,4.00
2017-11-30T03:44:22.047Z,4.00
2017-11-30T03:45:22.061Z,4.00
2017-11-30T03:46:22.082Z,4.00
2017-11-30T03:47:22.093Z,4.00
2017-11-30T03:48:22.108Z,4.00
2017-11-30T03:49:22.123Z,4.00
2017-11-30T03:50:22.137Z,4.00
2017-11-30T03:51:22.153Z,4.00
2017-11-30T03:52:22.169Z,4.00
2017-11-30T03:53:22.193Z,4.00
2017-11-30T03:54:22.198Z,4.00
2017-11-30T03:55:22.214Z,4.00
2017-11-30T03:56:22.229Z,4.00
2017-11-30T03:57:22.244Z,4.00
2017-11-30T03:58:22.259Z,4.00
2017-11-30T03:59:22.276Z,4.00
2017-11-30T04:00:22.292Z,4.00
2017-11-30T04:01:22.306Z,4.00
2017-11-30T04:02:22.324Z,4.00
2017-11-30T04:03:22.336Z,4.00
2017-11-30T04:04:22.352Z,4.00
2017-11-30T04:05:22.366Z,4.00
2017-11-30T04:06:22.382Z,4.00
2017-11-30T04:07:22.398Z,4.00
2017-11-30T04:08:22.412Z,4.00
2017-11-30T04:09:22.435Z,4.00
2017-11-30T04:10:22.443Z,4.00
2017-11-30T04:11:22.459Z,4.00
2017-11-30T04:12:22.474Z,4.00
2017-11-30T04:13:22.490Z,4.00
2017-11-30T04:14:22.503Z,4.00
2017-11-30T04:15:22.519Z,4.00
2017-11-30T04:16:22.534Z,4.00
2017-11-30T04:17:22.550Z,4.00
2017-11-30T04:18:22.565Z,4.00
2017-11-30T04:19:22.580Z,4.00
2017-11-30T04:20:22.596Z,4.00
2017-11-30T04:21:22.609Z,4.00
2017-11-30T04:22:22.627Z,4.00
2017-11-30T04:23:22.642Z,4.00
2017-11-30T04:24:22.655Z,4.00
2017-11-30T04:25:22.672Z,4.00
2017-11-30T04:26:22.685Z,4.00
2017-11-30T04:27:22.701Z,4.00
2017-11-30T04:28:22.717Z,4.00
2017-11-30T04:29:22.832Z,4.00
2017-11-30T04:30:22.753Z,4.00
2017-11-30T04:31:22.762Z,4.00
2017-11-30T04:32:22.778Z,4.00
2017-11-30T04:33:22.791Z,4.00
2017-11-30T04:34:22.807Z,4.00
2017-11-30T04:35:22.824Z,4.00
2017-11-30T04:36:22.837Z,4.00
2017-11-30T04:37:22.852Z,4.00
2017-11-30T04:38:22.866Z,4.00
2017-11-30T04:39:22.884Z,4.00
2017-11-30T04:40:22.898Z,4.00
2017-11-30T04:41:22.912Z,4.00
2017-11-30T04:42:22.927Z,4.00
2017-11-30T04:43:22.945Z,4.00
2017-11-30T04:44:22.960Z,4.00
2017-11-30T04:45:22.973Z,4.00
2017-11-30T04:46:22.989Z,4.00
2017-11-30T04:47:23.005Z,4.00
2017-11-30T04:48:23.019Z,4.00
2017-11-30T04:49:23.033Z,4.00
2017-11-30T04:50:23.048Z,4.00
2017-11-30T04:51:23.064Z,4.00
2017-11-30T04:52:23.080Z,4.00
2017-11-30T04:53:23.093Z,4.00
2017-11-30T04:54:23.108Z,4.00
2017-11-30T04:55:23.126Z,4.00
2017-11-30T04:56:23.141Z,4.00
2017-11-30T04:57:23.154Z,4.00
2017-11-30T04:58:23.170Z,4.00
2017-11-30T04:59:23.185Z,4.00
2017-11-30T05:00:23.201Z,4.00
2017-11-30T05:01:23.215Z,4.00
2017-11-30T05:02:23.230Z,4.00
2017-11-30T05:03:23.245Z,4.00
2017-11-30T05:04:23.260Z,4.00
2017-11-30T05:05:23.275Z,4.00
2017-11-30T05:06:23.291Z,4.00
2017-11-30T05:07:23.307Z,4.00
2017-11-30T05:08:23.321Z,4.00
2017-11-30T05:09:23.364Z,8.00
2017-11-30T05:10:23.351Z,4.00
2017-11-30T05:11:23.366Z,4.00
2017-11-30T05:12:23.382Z,4.00
2017-11-30T05:13:23.396Z,4.00
2017-11-30T05:14:23.413Z,4.00
2017-11-30T05:15:23.428Z,4.00
2017-11-30T05:16:23.443Z,4.00
2017-11-30T05:17:23.457Z,4.00
2017-11-30T05:18:23.473Z,4.00
2017-11-30T05:19:23.489Z,4.00
2017-11-30T05:20:23.504Z,8.00
2017-11-30T05:21:23.518Z,4.00
2017-11-30T05:22:23.535Z,4.00
2017-11-30T05:23:23.550Z,4.00
2017-11-30T05:24:23.564Z,4.00
2017-11-30T05:25:23.579Z,4.00
2017-11-30T05:26:23.604Z,4.00
2017-11-30T05:27:23.610Z,4.00
2017-11-30T05:28:23.626Z,4.00
2017-11-30T05:29:23.640Z,4.00
2017-11-30T05:30:23.655Z,4.00
2017-11-30T05:31:23.671Z,4.00
2017-11-30T05:32:23.686Z,4.00
2017-11-30T05:33:23.700Z,4.00
2017-11-30T05:34:23.715Z,4.00
2017-11-30T05:35:23.731Z,8.00
2017-11-30T05:36:23.753Z,4.00
2017-11-30T05:37:23.762Z,4.00
2017-11-30T05:38:23.777Z,4.00
2017-11-30T05:39:23.791Z,4.00
2017-11-30T05:40:23.808Z,4.00
2017-11-30T05:41:23.821Z,4.00
2017-11-30T05:42:23.837Z,4.00
2017-11-30T05:43:23.853Z,8.00
2017-11-30T05:44:23.867Z,4.00
2017-11-30T05:45:23.883Z,4.00
2017-11-30T05:46:23.898Z,8.00
2017-11-30T05:47:23.913Z,4.00
2017-11-30T05:48:23.930Z,4.00
2017-11-30T05:49:23.943Z,4.00
2017-11-30T05:50:23.962Z,4.00
2017-11-30T05:51:23.974Z,4.00
2017-11-30T05:52:23.993Z,4.00
2017-11-30T05:53:24.003Z,4.00
2017-11-30T05:54:24.022Z,4.00
2017-11-30T05:55:24.035Z,4.00
2017-11-30T05:56:24.056Z,4.00
2017-11-30T05:57:24.067Z,4.00
2017-11-30T05:58:24.080Z,4.00
2017-11-30T05:59:24.096Z,4.00
2017-11-30T06:00:24.111Z,4.00
2017-11-30T06:01:24.130Z,4.00
2017-11-30T06:02:24.143Z,4.00
2017-11-30T06:03:24.163Z,4.00
2017-11-30T06:04:24.172Z,4.00
2017-11-30T06:05:24.186Z,8.00
2017-11-30T06:06:24.201Z,8.00
2017-11-30T06:07:24.218Z,8.00
2017-11-30T06:08:24.244Z,8.00
2017-11-30T06:09:24.257Z,8.00
2017-11-30T06:10:24.262Z,8.00
2017-11-30T06:11:24.279Z,8.00
2017-11-30T06:12:24.299Z,8.00
2017-11-30T06:13:24.308Z,4.00
2017-11-30T06:14:24.324Z,4.00
2017-11-30T06:15:24.342Z,8.00
2017-11-30T06:16:24.355Z,4.00
2017-11-30T06:17:24.369Z,4.00
2017-11-30T06:18:24.384Z,4.00
2017-11-30T06:19:24.400Z,4.00
2017-11-30T06:20:24.415Z,8.00
2017-11-30T06:21:24.454Z,8.00
2017-11-30T06:22:24.446Z,4.00
2017-11-30T06:23:24.460Z,8.00
2017-11-30T06:24:24.477Z,4.00
2017-11-30T06:25:24.490Z,8.00
2017-11-30T06:26:24.506Z,4.00
2017-11-30T06:27:24.522Z,4.00
2017-11-30T06:28:24.537Z,4.00
2017-11-30T06:29:24.551Z,8.00
2017-11-30T06:30:24.570Z,4.00
2017-11-30T06:31:24.582Z,4.00
2017-11-30T06:32:24.598Z,8.00
2017-11-30T06:33:24.611Z,8.00
2017-11-30T06:34:24.627Z,4.00
2017-11-30T06:35:24.642Z,8.00
2017-11-30T06:36:24.658Z,8.00
2017-11-30T06:37:24.674Z,8.00
2017-11-30T06:38:24.687Z,8.00
2017-11-30T06:39:24.702Z,8.00
2017-11-30T06:40:24.719Z,4.00
2017-11-30T06:41:24.733Z,8.00
2017-11-30T06:42:24.748Z,8.00
2017-11-30T06:43:24.764Z,8.00
2017-11-30T06:44:24.806Z,4.00
2017-11-30T06:45:24.794Z,4.00
2017-11-30T06:46:24.818Z,8.00
2017-11-30T06:47:24.825Z,8.00
2017-11-30T06:48:24.841Z,4.00
2017-11-30T06:49:24.855Z,8.00
2017-11-30T06:50:24.873Z,8.00
2017-11-30T06:51:24.886Z,8.00
2017-11-30T06:52:24.906Z,8.00
2017-11-30T06:53:24.916Z,8.00
2017-11-30T06:54:24.930Z,8.00
2017-11-30T06:55:24.946Z,12.00
2017-11-30T06:56:24.964Z,12.00
2017-11-30T06:57:24.976Z,12.00
2017-11-30T06:58:24.992Z,12.00
2017-11-30T06:59:25.007Z,12.00
2017-11-30T07:00:25.022Z,16.00
2017-11-30T07:01:25.037Z,16.00
2017-11-30T07:02:25.053Z,16.00
2017-11-30T07:03:25.068Z,12.00
2017-11-30T07:04:25.085Z,16.00
2017-11-30T07:05:25.098Z,16.00
2017-11-30T07:06:25.114Z,20.00
2017-11-30T07:07:25.128Z,20.00
2017-11-30T07:08:25.143Z,20.00
2017-11-30T07:09:25.162Z,24.00
2017-11-30T07:10:25.178Z,24.00
2017-11-30T07:11:25.189Z,28.00
2017-11-30T07:12:25.209Z,28.00
2017-11-30T07:13:25.219Z,32.00
2017-11-30T07:14:25.236Z,32.00
2017-11-30T07:15:25.250Z,36.00
2017-11-30T07:16:25.267Z,40.00
2017-11-30T07:17:25.280Z,40.00
2017-11-30T07:18:25.300Z,40.00
2017-11-30T07:19:25.311Z,44.00
2017-11-30T07:20:25.328Z,44.00
2017-11-30T07:21:25.342Z,48.00
2017-11-30T07:22:25.359Z,52.00
2017-11-30T07:23:25.371Z,56.00
2017-11-30T07:24:25.392Z,60.00
2017-11-30T07:25:25.401Z,68.00
2017-11-30T07:26:25.418Z,72.00
2017-11-30T07:27:25.444Z,76.00
2017-11-30T07:28:25.449Z,84.00
2017-11-30T07:29:25.462Z,88.00
2017-11-30T07:30:25.529Z,92.00
2017-11-30T07:31:25.494Z,96.00
2017-11-30T07:32:25.511Z,100.00
2017-11-30T07:33:25.525Z,108.00
2017-11-30T07:34:25.540Z,112.00
2017-11-30T07:35:25.556Z,116.00
2017-11-30T07:36:25.571Z,120.00
2017-11-30T07:37:25.587Z,132.00
2017-11-30T07:38:25.602Z,148.00
2017-11-30T07:39:25.618Z,160.00
2017-11-30T07:40:25.636Z,172.00
2017-11-30T07:41:25.647Z,180.00
2017-11-30T07:42:25.663Z,196.00
2017-11-30T07:43:25.678Z,220.00
2017-11-30T07:44:25.696Z,232.00
2017-11-30T07:45:25.708Z,228.00
2017-11-30T07:46:25.723Z,220.00
2017-11-30T07:47:25.739Z,220.00
2017-11-30T07:48:25.767Z,216.00
2017-11-30T07:49:25.769Z,220.00
2017-11-30T07:50:25.785Z,232.00
2017-11-30T07:51:25.805Z,244.00
2017-11-30T07:52:25.816Z,248.00
2017-11-30T07:53:25.829Z,240.00
2017-11-30T07:54:25.859Z,248.00
2017-11-30T07:55:25.868Z,256.00
2017-11-30T07:56:25.877Z,252.00
2017-11-30T07:57:25.891Z,260.00
2017-11-30T07:58:25.910Z,280.00
2017-11-30T07:59:25.924Z,288.00
2017-11-30T08:00:25.941Z,272.00
2017-11-30T08:01:25.954Z,264.00
2017-11-30T08:02:25.969Z,264.00
2017-11-30T08:03:25.985Z,252.00
2017-11-30T08:04:26.001Z,276.00
2017-11-30T08:05:26.015Z,280.00
2017-11-30T08:06:26.031Z,280.00
2017-11-30T08:07:26.047Z,304.00
2017-11-30T08:08:26.062Z,320.00
2017-11-30T08:09:26.077Z,348.00
2017-11-30T08:10:26.092Z,388.00
2017-11-30T08:11:26.111Z,428.00
2017-11-30T08:12:26.123Z,428.00
2017-11-30T08:13:26.137Z,404.00
2017-11-30T08:14:26.171Z,420.00
2017-11-30T08:15:26.171Z,444.00
2017-11-30T08:16:26.186Z,476.00
2017-11-30T08:17:26.199Z,448.00
2017-11-30T08:18:26.219Z,404.00
2017-11-30T08:19:26.232Z,320.00
2017-11-30T08:20:26.247Z,292.00
2017-11-30T08:21:26.262Z,300.00
2017-11-30T08:22:26.278Z,304.00
2017-11-30T08:23:26.294Z,328.00
2017-11-30T08:24:26.310Z,364.00
2017-11-30T08:25:26.323Z,336.00
2017-11-30T08:26:26.340Z,352.00
2017-11-30T08:27:26.356Z,324.00
2017-11-30T08:28:26.371Z,304.00
2017-11-30T08:29:26.386Z,324.00
2017-11-30T08:30:26.401Z,312.00
2017-11-30T08:31:26.418Z,336.00
2017-11-30T08:32:26.433Z,384.00
2017-11-30T08:33:26.449Z,408.00
2017-11-30T08:34:26.464Z,408.00
2017-11-30T08:35:26.480Z,444.00
2017-11-30T08:36:26.496Z,464.00
2017-11-30T08:37:26.511Z,540.00
2017-11-30T08:38:26.749Z,628.00
2017-11-30T08:39:26.545Z,660.00
2017-11-30T08:40:26.559Z,736.00
2017-11-30T08:41:26.577Z,856.00
2017-11-30T08:42:26.653Z,952.00
2017-11-30T08:43:26.609Z,960.00
2017-11-30T08:44:26.621Z,980.00
2017-11-30T08:45:26.635Z,1048.00
2017-11-30T08:46:26.651Z,1268.00
2017-11-30T08:47:26.667Z,1480.00
2017-11-30T08:48:26.688Z,1552.00
2017-11-30T08:49:26.697Z,1728.00
2017-11-30T08:50:26.713Z,2108.00
2017-11-30T08:51:26.733Z,2328.00
2017-11-30T08:52:26.796Z,2464.00
2017-11-30T08:53:26.767Z,2340.00
2017-11-30T08:54:26.776Z,2192.00
2017-11-30T08:55:26.792Z,2080.00
2017-11-30T08:56:26.807Z,1776.00
2017-11-30T08:57:26.823Z,1628.00
2017-11-30T08:58:26.839Z,1520.00
2017-11-30T08:59:26.856Z,1364.00
2017-11-30T09:00:26.869Z,1320.00
2017-11-30T09:01:27.087Z,1256.00
2017-11-30T09:02:26.902Z,1224.00
2017-11-30T09:03:26.979Z,1308.00
2017-11-30T09:04:26.934Z,1396.00
2017-11-30T09:05:26.954Z,1472.00
2017-11-30T09:06:26.965Z,1540.00
2017-11-30T09:07:26.982Z,1444.00
2017-11-30T09:08:26.997Z,1440.00
2017-11-30T09:09:27.012Z,1444.00
2017-11-30T09:10:27.027Z,1580.00
2017-11-30T09:11:27.245Z,1788.00
2017-11-30T09:12:27.061Z,1892.00
2017-11-30T09:13:27.075Z,1992.00
2017-11-30T09:14:27.091Z,2008.00
2017-11-30T09:15:27.108Z,1808.00
2017-11-30T09:16:27.195Z,1644.00
2017-11-30T09:17:27.140Z,1640.00
2017-11-30T09:18:27.157Z,1732.00
2017-11-30T09:19:27.172Z,1764.00
2017-11-30T09:20:27.188Z,1824.00
2017-11-30T09:21:27.203Z,1848.00
2017-11-30T09:22:27.219Z,1752.00
2017-11-30T09:23:27.235Z,1664.00
2017-11-30T09:24:27.252Z,1612.00
2017-11-30T09:25:27.266Z,1440.00
2017-11-30T09:26:27.284Z,1412.00
2017-11-30T09:27:27.300Z,1392.00
2017-11-30T09:28:27.315Z,1436.00
2017-11-30T09:29:27.331Z,1380.00
2017-11-30T09:30:27.346Z,1120.00
2017-11-30T09:31:27.363Z,864.00
2017-11-30T09:32:27.379Z,768.00
2017-11-30T09:33:27.395Z,824.00
2017-11-30T09:34:27.411Z,1028.00
2017-11-30T09:35:27.427Z,1388.00
2017-11-30T09:36:27.443Z,1532.00
2017-11-30T09:37:27.459Z,1364.00
2017-11-30T09:38:27.473Z,1368.00
2017-11-30T09:39:27.490Z,1344.00
2017-11-30T09:40:27.508Z,1316.00
2017-11-30T09:41:27.522Z,1324.00
2017-11-30T09:42:27.537Z,1384.00
2017-11-30T09:43:27.555Z,1388.00
2017-11-30T09:44:27.570Z,1544.00
2017-11-30T09:45:27.587Z,1492.00
2017-11-30T09:46:27.605Z,1648.00
2017-11-30T09:47:27.620Z,1680.00
2017-11-30T09:48:27.635Z,1584.00
2017-11-30T09:49:27.650Z,1564.00
2017-11-30T09:50:27.669Z,1528.00
2017-11-30T09:51:27.683Z,1512.00
2017-11-30T09:52:27.699Z,1536.00
2017-11-30T09:53:27.714Z,1516.00
2017-11-30T09:54:27.729Z,1464.00
2017-11-30T09:55:27.747Z,1436.00
2017-11-30T09:56:27.814Z,1408.00
2017-11-30T09:57:27.779Z,1348.00
2017-11-30T09:58:27.796Z,1396.00
2017-11-30T09:59:27.811Z,1460.00
2017-11-30T10:00:27.829Z,1412.00
2017-11-30T10:01:27.843Z,1388.00
2017-11-30T10:02:27.866Z,1340.00
2017-11-30T10:03:27.876Z,1356.00
2017-11-30T10:04:27.892Z,1372.00
2017-11-30T10:05:27.909Z,1340.00
2017-11-30T10:06:27.932Z,1384.00
2017-11-30T10:07:27.945Z,1416.00
2017-11-30T10:08:27.959Z,1536.00
2017-11-30T10:09:27.971Z,1704.00
2017-11-30T10:10:27.988Z,1772.00
2017-11-30T10:11:28.004Z,1784.00
2017-11-30T10:12:28.021Z,1772.00
2017-11-30T10:13:28.037Z,1668.00
2017-11-30T10:14:28.052Z,1604.00
2017-11-30T10:15:28.067Z,1540.00
2017-11-30T10:16:28.085Z,1528.00
2017-11-30T10:17:28.103Z,1460.00
2017-11-30T10:18:28.117Z,1428.00
2017-11-30T10:19:28.133Z,1376.00
2017-11-30T10:20:28.149Z,1312.00
2017-11-30T10:21:28.165Z,1264.00
2017-11-30T10:22:28.182Z,1192.00
2017-11-30T10:23:28.197Z,1160.00
2017-11-30T10:24:28.213Z,1120.00
2017-11-30T10:25:28.379Z,1104.00
2017-11-30T10:26:28.245Z,1076.00
2017-11-30T10:27:28.262Z,1088.00
2017-11-30T10:28:28.279Z,1152.00
2017-11-30T10:29:28.294Z,1216.00
2017-11-30T10:30:28.310Z,1216.00
2017-11-30T10:31:28.327Z,1232.00
2017-11-30T10:32:28.342Z,1240.00
2017-11-30T10:33:28.359Z,1192.00
2017-11-30T10:34:28.374Z,1196.00
2017-11-30T10:35:28.391Z,1192.00
2017-11-30T10:36:28.420Z,1136.00
2017-11-30T10:37:28.421Z,1124.00
2017-11-30T10:38:28.438Z,1120.00
2017-11-30T10:39:28.455Z,1132.00
2017-11-30T10:40:28.472Z,1136.00
2017-11-30T10:41:28.489Z,1124.00
2017-11-30T10:42:28.503Z,1128.00
2017-11-30T10:43:28.520Z,1012.00
2017-11-30T10:44:28.536Z,924.00
2017-11-30T10:45:28.551Z,888.00
2017-11-30T10:46:28.570Z,864.00
2017-11-30T10:47:28.584Z,888.00
2017-11-30T10:48:28.601Z,944.00
2017-11-30T10:49:28.615Z,916.00
2017-11-30T10:50:28.634Z,924.00
2017-11-30T10:51:28.650Z,944.00
2017-11-30T10:52:28.667Z,944.00
2017-11-30T10:53:28.682Z,972.00
2017-11-30T10:54:28.698Z,948.00
2017-11-30T10:55:28.714Z,832.00
2017-11-30T10:56:28.745Z,812.00
2017-11-30T10:57:28.748Z,848.00
2017-11-30T10:58:28.933Z,848.00
2017-11-30T10:59:28.809Z,868.00
2017-11-30T11:00:28.797Z,944.00
2017-11-30T11:01:28.814Z,1064.00
2017-11-30T11:02:28.831Z,1228.00
2017-11-30T11:03:28.846Z,1160.00
2017-11-30T11:04:28.865Z,1256.00
2017-11-30T11:05:29.278Z,1276.00
2017-11-30T11:06:28.905Z,1192.00
2017-11-30T11:07:28.913Z,1192.00
2017-11-30T11:08:28.927Z,1148.00
2017-11-30T11:09:28.950Z,1112.00
2017-11-30T11:10:29.029Z,1020.00
2017-11-30T11:11:28.976Z,1136.00
2017-11-30T11:12:29.001Z,1148.00
2017-11-30T11:13:29.016Z,1028.00
2017-11-30T11:14:29.040Z,920.00
2017-11-30T11:15:29.040Z,936.00
2017-11-30T11:16:29.057Z,856.00
2017-11-30T11:17:29.072Z,864.00
2017-11-30T11:18:29.089Z,848.00
2017-11-30T11:19:29.106Z,836.00
2017-11-30T11:20:29.121Z,884.00
2017-11-30T11:21:29.140Z,912.00
2017-11-30T11:22:29.154Z,900.00
2017-11-30T11:23:29.173Z,844.00
2017-11-30T11:24:29.187Z,868.00
2017-11-30T11:25:29.231Z,880.00
2017-11-30T11:26:29.223Z,888.00
2017-11-30T11:27:29.239Z,984.00
2017-11-30T11:28:29.252Z,1164.00
2017-11-30T11:29:29.268Z,1100.00
2017-11-30T11:30:29.284Z,1072.00
2017-11-30T11:31:29.301Z,920.00
2017-11-30T11:32:29.319Z,852.00
2017-11-30T11:33:29.336Z,852.00
2017-11-30T11:34:29.351Z,840.00
2017-11-30T11:35:29.366Z,868.00
2017-11-30T11:36:29.384Z,896.00
2017-11-30T11:37:29.401Z,960.00
2017-11-30T11:38:29.416Z,1036.00
2017-11-30T11:39:29.432Z,1132.00
2017-11-30T11:40:29.449Z,1116.00
2017-11-30T11:41:29.472Z,984.00
2017-11-30T11:42:29.481Z,932.00
2017-11-30T11:43:29.599Z,1060.00
2017-11-30T11:44:29.514Z,1068.00
2017-11-30T11:45:29.530Z,1176.00
2017-11-30T11:46:29.546Z,1280.00
2017-11-30T11:47:29.563Z,1292.00
2017-11-30T11:48:29.580Z,1292.00
2017-11-30T11:49:29.598Z,1300.00
2017-11-30T11:50:29.612Z,1324.00
2017-11-30T11:51:29.627Z,1388.00
2017-11-30T11:52:29.649Z,1420.00
2017-11-30T11:53:29.662Z,1552.00
2017-11-30T11:54:29.678Z,1656.00
2017-11-30T11:55:29.694Z,1652.00
2017-11-30T11:56:29.711Z,1600.00
2017-11-30T11:57:29.725Z,1648.00
2017-11-30T11:58:29.754Z,1636.00
2017-11-30T11:59:29.762Z,1540.00
2017-11-30T12:00:29.832Z,1540.00
2017-11-30T12:01:29.792Z,1644.00
2017-11-30T12:02:29.809Z,1748.00
2017-11-30T12:03:29.825Z,1780.00
2017-11-30T12:04:29.849Z,1724.00
2017-11-30T12:05:29.858Z,1620.00
2017-11-30T12:06:29.875Z,1728.00
2017-11-30T12:07:29.890Z,1956.00
2017-11-30T12:08:29.909Z,2052.00
2017-11-30T12:09:29.925Z,2276.00
2017-11-30T12:10:29.942Z,2296.00
2017-11-30T12:11:29.958Z,1860.00
2017-11-30T12:12:30.002Z,1516.00
2017-11-30T12:13:29.991Z,1356.00
2017-11-30T12:14:30.007Z,1392.00
2017-11-30T12:15:30.025Z,1548.00
2017-11-30T12:16:30.041Z,1512.00
2017-11-30T12:17:30.073Z,1436.00
2017-11-30T12:18:30.174Z,1736.00
2017-11-30T12:19:30.090Z,2096.00
2017-11-30T12:20:30.107Z,2032.00
2017-11-30T12:21:30.122Z,1960.00
2017-11-30T12:22:30.141Z,1888.00
2017-11-30T12:23:30.157Z,1844.00
2017-11-30T12:24:30.211Z,1776.00
2017-11-30T12:25:30.192Z,1464.00
2017-11-30T12:26:30.206Z,1192.00
2017-11-30T12:27:30.223Z,1104.00
2017-11-30T12:28:30.249Z,908.00
2017-11-30T12:29:30.257Z,836.00
2017-11-30T12:30:30.275Z,832.00
2017-11-30T12:31:30.290Z,880.00
2017-11-30T12:32:30.308Z,980.00
2017-11-30T12:33:30.327Z,960.00
2017-11-30T12:34:30.343Z,1044.00
2017-11-30T12:35:30.358Z,956.00
2017-11-30T12:36:30.376Z,816.00
2017-11-30T12:37:30.390Z,992.00
2017-11-30T12:38:30.407Z,1284.00
2017-11-30T12:39:30.425Z,1384.00
2017-11-30T12:40:30.441Z,1376.00
2017-11-30T12:41:30.459Z,1400.00
2017-11-30T12:42:30.474Z,1372.00
2017-11-30T12:43:30.492Z,1384.00
2017-11-30T12:44:30.511Z,1416.00
2017-11-30T12:45:30.526Z,1444.00
2017-11-30T12:46:30.541Z,1528.00
2017-11-30T12:47:30.559Z,1636.00
2017-11-30T12:48:30.576Z,1668.00
2017-11-30T12:49:30.593Z,1760.00